sensor_id;sensor_type;location;lat;lon;timestamp;noise_LAeq;noise_LA_min;noise_LA_max;noise_LA01;noise_LA95
45651;Laerm;31365;48.858;8.530;2023-03-12T00:00:31;40.48;35.36;44.31;;
45651;Laerm;31365;48.858;8.530;2023-03-12T00:03:08;52.64;38.05;71.57;;
45651;Laerm;31365;48.858;8.530;2023-03-12T00:06:08;62.03;36.34;81.26;;
45651;Laerm;31365;48.858;8.530;2023-03-12T00:09:05;55.16;35.66;72.15;;
45651;Laerm;31365;48.858;8.530;2023-03-12T00:12:26;51.09;36.69;69.84;;
45651;Laerm;31365;48.858;8.530;2023-03-12T03:21:14;39.26;33.90;42.53;;
45651;Laerm;31365;48.858;8.530;2023-03-12T03:23:47;39.45;35.94;42.03;;
45651;Laerm;31365;48.858;8.530;2023-03-12T03:26:19;39.63;35.94;42.03;;
45651;Laerm;31365;48.858;8.530;2023-03-12T03:28:49;52.63;36.20;74.87;;
45651;Laerm;31365;48.858;8.530;2023-03-12T03:31:19;51.59;35.36;71.37;;
45651;Laerm;31365;48.858;8.530;2023-03-12T03:33:48;40.16;35.36;44.11;;
45651;Laerm;31365;48.858;8.530;2023-03-12T03:36:18;49.74;34.69;68.39;;
45651;Laerm;31365;48.858;8.530;2023-03-12T03:38:55;50.56;35.04;69.76;;
45651;Laerm;31365;48.858;8.530;2023-03-12T03:41:23;54.21;35.66;74.86;;
45651;Laerm;31365;48.858;8.530;2023-03-12T03:43:56;39.75;34.69;42.16;;
45651;Laerm;31365;48.858;8.530;2023-03-12T03:46:27;39.88;35.04;43.58;;
45651;Laerm;31365;48.858;8.530;2023-03-12T03:49:01;51.38;35.94;73.20;;
45651;Laerm;31365;48.858;8.530;2023-03-12T03:51:33;39.74;35.66;42.22;;
45651;Laerm;31365;48.858;8.530;2023-03-12T03:54:07;39.62;35.66;45.27;;
45651;Laerm;31365;48.858;8.530;2023-03-12T03:56:35;39.85;35.66;43.86;;
45651;Laerm;31365;48.858;8.530;2023-03-12T03:59:05;39.93;36.20;42.35;;
45651;Laerm;31365;48.858;8.530;2023-03-12T04:01:37;40.40;34.69;44.51;;
45651;Laerm;31365;48.858;8.530;2023-03-12T04:04:06;39.84;36.45;43.58;;
45651;Laerm;31365;48.858;8.530;2023-03-12T04:06:37;49.57;35.36;67.80;;
45651;Laerm;31365;48.858;8.530;2023-03-12T04:09:05;51.48;35.66;70.52;;
45651;Laerm;31365;48.858;8.530;2023-03-12T04:11:37;59.17;35.66;77.03;;
45651;Laerm;31365;48.858;8.530;2023-03-12T04:14:08;43.32;36.69;52.36;;
45651;Laerm;31365;48.858;8.530;2023-03-12T04:16:39;42.28;36.45;51.56;;
45651;Laerm;31365;48.858;8.530;2023-03-12T04:19:07;39.82;35.04;42.93;;
45651;Laerm;31365;48.858;8.530;2023-03-12T04:21:37;42.54;35.66;49.40;;
45651;Laerm;31365;48.858;8.530;2023-03-12T04:24:12;41.39;35.04;46.69;;
45651;Laerm;31365;48.858;8.530;2023-03-12T04:26:42;39.51;35.36;42.88;;
45651;Laerm;31365;48.858;8.530;2023-03-12T04:29:12;58.57;35.66;77.20;;
45651;Laerm;31365;48.858;8.530;2023-03-12T04:31:41;39.55;35.04;45.60;;
45651;Laerm;31365;48.858;8.530;2023-03-12T04:34:11;39.72;35.66;43.77;;
45651;Laerm;31365;48.858;8.530;2023-03-12T04:36:46;61.46;38.67;81.27;;
45651;Laerm;31365;48.858;8.530;2023-03-12T04:39:17;42.75;36.20;54.54;;
45651;Laerm;31365;48.858;8.530;2023-03-12T04:41:49;52.60;34.69;69.80;;
45651;Laerm;31365;48.858;8.530;2023-03-12T04:44:18;39.84;34.69;47.75;;
45651;Laerm;31365;48.858;8.530;2023-03-12T04:46:47;40.10;34.69;53.75;;
45651;Laerm;31365;48.858;8.530;2023-03-12T04:49:19;54.62;35.94;74.03;;
45651;Laerm;31365;48.858;8.530;2023-03-12T04:51:49;56.32;34.69;77.99;;
45651;Laerm;31365;48.858;8.530;2023-03-12T04:54:19;39.18;33.90;42.22;;
45651;Laerm;31365;48.858;8.530;2023-03-12T04:56:49;51.67;35.36;72.19;;
45651;Laerm;31365;48.858;8.530;2023-03-12T04:59:20;52.14;36.20;71.24;;
45651;Laerm;31365;48.858;8.530;2023-03-12T05:01:49;42.76;33.44;51.04;;
45651;Laerm;31365;48.858;8.530;2023-03-12T05:04:23;40.73;36.20;48.80;;
45651;Laerm;31365;48.858;8.530;2023-03-12T05:06:55;55.88;35.94;77.32;;
45651;Laerm;31365;48.858;8.530;2023-03-12T05:09:24;40.44;35.94;53.12;;
45651;Laerm;31365;48.858;8.530;2023-03-12T05:11:52;41.08;35.94;51.73;;
45651;Laerm;31365;48.858;8.530;2023-03-12T05:14:22;54.19;35.66;73.91;;
45651;Laerm;31365;48.858;8.530;2023-03-12T05:16:50;55.01;36.45;75.74;;
45651;Laerm;31365;48.858;8.530;2023-03-12T05:19:19;41.27;36.45;54.93;;
45651;Laerm;31365;48.858;8.530;2023-03-12T05:21:48;56.37;39.58;75.21;;
45651;Laerm;31365;48.858;8.530;2023-03-12T05:24:18;55.03;36.91;76.54;;
45651;Laerm;31365;48.858;8.530;2023-03-12T05:26:48;40.42;36.20;49.57;;
45651;Laerm;31365;48.858;8.530;2023-03-12T05:29:21;41.17;35.94;58.53;;
45651;Laerm;31365;48.858;8.530;2023-03-12T05:31:51;51.78;37.12;72.95;;
45651;Laerm;31365;48.858;8.530;2023-03-12T05:34:20;57.25;36.91;75.21;;
45651;Laerm;31365;48.858;8.530;2023-03-12T05:36:49;40.48;35.94;48.60;;
45651;Laerm;31365;48.858;8.530;2023-03-12T05:39:24;51.01;37.12;66.86;;
45651;Laerm;31365;48.858;8.530;2023-03-12T05:41:57;52.55;37.32;72.14;;
45651;Laerm;31365;48.858;8.530;2023-03-12T05:44:26;64.20;38.21;83.73;;
45651;Laerm;31365;48.858;8.530;2023-03-12T05:46:55;55.00;38.05;77.50;;
45651;Laerm;31365;48.858;8.530;2023-03-12T05:49:26;59.31;37.70;78.94;;
45651;Laerm;31365;48.858;8.530;2023-03-12T05:51:56;46.12;37.88;60.66;;
45651;Laerm;31365;48.858;8.530;2023-03-12T05:54:26;52.22;37.70;69.36;;
45651;Laerm;31365;48.858;8.530;2023-03-12T05:56:55;55.42;37.35;72.30;;
45651;Laerm;31365;48.858;8.530;2023-03-12T05:59:25;55.14;37.88;76.80;;
45651;Laerm;31365;48.858;8.530;2023-03-12T06:01:55;50.46;37.32;68.96;;
45651;Laerm;31365;48.858;8.530;2023-03-12T06:04:25;55.90;37.52;74.83;;
45651;Laerm;31365;48.858;8.530;2023-03-12T06:06:53;45.93;38.21;62.74;;
45651;Laerm;31365;48.858;8.530;2023-03-12T06:09:22;54.00;36.91;72.73;;
45651;Laerm;31365;48.858;8.530;2023-03-12T06:11:53;54.83;37.70;73.87;;
45651;Laerm;31365;48.858;8.530;2023-03-12T06:16:50;56.44;39.21;72.48;;
45651;Laerm;31365;48.858;8.530;2023-03-12T06:19:18;61.73;38.67;82.38;;
45651;Laerm;31365;48.858;8.530;2023-03-12T06:21:48;59.81;38.81;79.42;;
45651;Laerm;31365;48.858;8.530;2023-03-12T06:24:17;55.21;39.21;74.98;;
45651;Laerm;31365;48.858;8.530;2023-03-12T06:26:54;53.91;39.08;71.03;;
45651;Laerm;31365;48.858;8.530;2023-03-12T06:29:22;57.60;38.37;76.04;;
45651;Laerm;31365;48.858;8.530;2023-03-12T06:31:51;54.84;39.21;73.16;;
45651;Laerm;31365;48.858;8.530;2023-03-12T06:34:19;56.93;38.21;75.01;;
45651;Laerm;31365;48.858;8.530;2023-03-12T06:36:48;61.22;38.37;80.74;;
45651;Laerm;31365;48.858;8.530;2023-03-12T06:39:16;42.59;42.59;42.59;;
45651;Laerm;31365;48.858;8.530;2023-03-12T06:41:44;53.47;38.21;69.84;;
45651;Laerm;31365;48.858;8.530;2023-03-12T06:44:14;46.14;38.05;61.23;;
45651;Laerm;31365;48.858;8.530;2023-03-12T06:46:43;51.53;38.81;67.99;;
45651;Laerm;31365;48.858;8.530;2023-03-12T06:49:12;57.78;39.08;74.24;;
45651;Laerm;31365;48.858;8.530;2023-03-12T06:51:41;53.86;39.08;72.51;;
45651;Laerm;31365;48.858;8.530;2023-03-12T06:54:09;45.21;41.14;57.34;;
45651;Laerm;31365;48.858;8.530;2023-03-12T06:56:38;54.22;38.37;73.77;;
45651;Laerm;31365;48.858;8.530;2023-03-12T06:59:06;51.06;38.47;68.38;;
45651;Laerm;31365;48.858;8.530;2023-03-12T07:01:36;58.34;38.67;77.13;;
45651;Laerm;31365;48.858;8.530;2023-03-12T07:04:05;47.90;38.21;61.48;;
45651;Laerm;31365;48.858;8.530;2023-03-12T07:06:33;58.48;39.21;79.25;;
45651;Laerm;31365;48.858;8.530;2023-03-12T07:09:02;59.22;38.95;78.92;;
45651;Laerm;31365;48.858;8.530;2023-03-12T07:11:31;56.02;39.08;73.10;;
45651;Laerm;31365;48.858;8.530;2023-03-12T07:13:59;50.05;38.95;68.29;;
45651;Laerm;31365;48.858;8.530;2023-03-12T07:16:28;57.33;39.58;75.62;;
45651;Laerm;31365;48.858;8.530;2023-03-12T07:18:58;55.33;40.62;71.86;;
45651;Laerm;31365;48.858;8.530;2023-03-12T07:21:27;54.67;38.95;73.47;;
45651;Laerm;31365;48.858;8.530;2023-03-12T07:23:55;60.03;38.81;79.28;;
45651;Laerm;31365;48.858;8.530;2023-03-12T07:26:24;58.17;39.46;78.01;;
45651;Laerm;31365;48.858;8.530;2023-03-12T07:28:52;59.02;39.81;78.45;;
45651;Laerm;31365;48.858;8.530;2023-03-12T07:31:21;57.68;38.21;74.34;;
45651;Laerm;31365;48.858;8.530;2023-03-12T07:33:50;58.37;39.46;73.42;;
45651;Laerm;31365;48.858;8.530;2023-03-12T07:36:21;57.86;39.21;76.05;;
45651;Laerm;31365;48.858;8.530;2023-03-12T07:38:49;57.04;39.08;73.21;;
45651;Laerm;31365;48.858;8.530;2023-03-12T07:43:46;56.84;39.08;75.86;;
45651;Laerm;31365;48.858;8.530;2023-03-12T07:46:15;58.01;39.23;77.41;;
45651;Laerm;31365;48.858;8.530;2023-03-12T07:48:43;59.23;41.06;75.64;;
45651;Laerm;31365;48.858;8.530;2023-03-12T07:51:12;54.01;38.87;71.00;;
45651;Laerm;31365;48.858;8.530;2023-03-12T07:53:42;60.62;39.46;80.70;;
45651;Laerm;31365;48.858;8.530;2023-03-12T07:56:10;60.96;40.03;77.54;;
45651;Laerm;31365;48.858;8.530;2023-03-12T07:58:39;58.53;39.21;72.74;;
45651;Laerm;31365;48.858;8.530;2023-03-12T08:01:08;60.19;39.08;77.28;;
45651;Laerm;31365;48.858;8.530;2023-03-12T08:03:36;60.71;39.81;77.34;;
45651;Laerm;31365;48.858;8.530;2023-03-12T08:06:06;60.59;39.58;76.65;;
45651;Laerm;31365;48.858;8.530;2023-03-12T08:08:34;59.57;38.95;76.68;;
45651;Laerm;31365;48.858;8.530;2023-03-12T08:11:06;56.64;43.39;72.74;;
45651;Laerm;31365;48.858;8.530;2023-03-12T08:13:35;61.86;44.31;79.51;;
45651;Laerm;31365;48.858;8.530;2023-03-12T08:16:04;63.16;42.71;77.89;;
45651;Laerm;31365;48.858;8.530;2023-03-12T08:18:36;62.18;40.03;77.27;;
45651;Laerm;31365;48.858;8.530;2023-03-12T08:21:05;62.29;40.13;78.83;;
45651;Laerm;31365;48.858;8.530;2023-03-12T08:23:33;60.94;40.33;77.67;;
45651;Laerm;31365;48.858;8.530;2023-03-12T08:26:01;61.86;40.43;79.83;;
45651;Laerm;31365;48.858;8.530;2023-03-12T08:28:31;60.76;40.71;78.83;;
45651;Laerm;31365;48.858;8.530;2023-03-12T08:31:00;64.40;40.71;80.16;;
45651;Laerm;31365;48.858;8.530;2023-03-12T08:33:28;62.21;40.98;79.14;;
45651;Laerm;31365;48.858;8.530;2023-03-12T08:35:57;64.23;40.03;78.09;;
45651;Laerm;31365;48.858;8.530;2023-03-12T08:38:25;64.00;39.58;76.86;;
45651;Laerm;31365;48.858;8.530;2023-03-12T08:40:55;63.04;40.03;77.69;;
45651;Laerm;31365;48.858;8.530;2023-03-12T08:43:24;61.43;39.46;75.32;;
45651;Laerm;31365;48.858;8.530;2023-03-12T08:45:58;63.10;39.92;80.54;;
45651;Laerm;31365;48.858;8.530;2023-03-12T08:48:29;62.21;40.53;77.83;;
45651;Laerm;31365;48.858;8.530;2023-03-12T08:51:00;57.84;39.92;73.66;;
45651;Laerm;31365;48.858;8.530;2023-03-12T08:53:31;55.47;38.37;73.39;;
45651;Laerm;31365;48.858;8.530;2023-03-12T08:56:01;64.26;39.92;80.29;;
45651;Laerm;31365;48.858;8.530;2023-03-12T08:58:30;62.29;40.88;80.25;;
45651;Laerm;31365;48.858;8.530;2023-03-12T09:01:00;59.82;40.33;74.46;;
45651;Laerm;31365;48.858;8.530;2023-03-12T09:03:28;59.24;39.21;77.73;;
45651;Laerm;31365;48.858;8.530;2023-03-12T09:06:04;57.13;39.70;73.99;;
45651;Laerm;31365;48.858;8.530;2023-03-12T09:08:35;64.10;41.33;77.87;;
45651;Laerm;31365;48.858;8.530;2023-03-12T09:11:08;62.33;40.89;78.61;;
45651;Laerm;31365;48.858;8.530;2023-03-12T09:13:38;56.17;40.98;72.24;;
45651;Laerm;31365;48.858;8.530;2023-03-12T09:16:28;62.20;40.80;76.93;;
45651;Laerm;31365;48.858;8.530;2023-03-12T09:18:56;58.89;39.70;74.45;;
45651;Laerm;31365;48.858;8.530;2023-03-12T09:21:25;62.84;40.33;81.52;;
45651;Laerm;31365;48.858;8.530;2023-03-12T09:23:53;60.94;41.22;77.77;;
45651;Laerm;31365;48.858;8.530;2023-03-12T09:26:22;58.66;41.53;74.05;;
45651;Laerm;31365;48.858;8.530;2023-03-12T09:28:51;65.15;45.63;82.54;;
45651;Laerm;31365;48.858;8.530;2023-03-12T09:31:19;64.50;40.80;88.52;;
45651;Laerm;31365;48.858;8.530;2023-03-12T09:33:50;61.79;42.47;77.46;;
45651;Laerm;31365;48.858;8.530;2023-03-12T09:36:20;63.04;41.82;80.83;;
45651;Laerm;31365;48.858;8.530;2023-03-12T09:38:48;63.26;40.80;80.73;;
45651;Laerm;31365;48.858;8.530;2023-03-12T09:41:19;59.41;39.92;76.61;;
45651;Laerm;31365;48.858;8.530;2023-03-12T09:43:53;62.36;38.95;81.66;;
45651;Laerm;31365;48.858;8.530;2023-03-12T09:46:32;59.43;40.98;75.20;;
45651;Laerm;31365;48.858;8.530;2023-03-12T09:49:12;61.10;39.21;80.01;;
45651;Laerm;31365;48.858;8.530;2023-03-12T09:51:48;62.26;42.41;79.62;;
45651;Laerm;31365;48.858;8.530;2023-03-12T09:54:27;58.96;40.62;72.84;;
45651;Laerm;31365;48.858;8.530;2023-03-12T09:57:09;64.39;44.03;79.02;;
45651;Laerm;31365;48.858;8.530;2023-03-12T09:59:38;60.92;41.06;77.08;;
45651;Laerm;31365;48.858;8.530;2023-03-12T10:02:46;65.13;39.46;82.23;;
45651;Laerm;31365;48.858;8.530;2023-03-12T10:05:32;64.37;39.34;79.96;;
45651;Laerm;31365;48.858;8.530;2023-03-12T10:08:11;63.58;40.80;80.18;;
45651;Laerm;31365;48.858;8.530;2023-03-12T10:10:57;62.85;41.06;78.97;;
45651;Laerm;31365;48.858;8.530;2023-03-12T10:14:03;63.94;46.02;77.51;;
45651;Laerm;31365;48.858;8.530;2023-03-12T10:16:50;63.04;40.62;77.75;;
45651;Laerm;31365;48.858;8.530;2023-03-12T10:19:42;64.21;43.86;77.58;;
45651;Laerm;31365;48.858;8.530;2023-03-12T10:22:30;62.52;41.22;75.07;;
45651;Laerm;31365;48.858;8.530;2023-03-12T10:25:13;63.42;40.98;80.18;;
45651;Laerm;31365;48.858;8.530;2023-03-12T10:27:43;63.71;41.14;79.39;;
45651;Laerm;31365;48.858;8.530;2023-03-12T10:30:17;64.37;39.92;80.15;;
45651;Laerm;31365;48.858;8.530;2023-03-12T10:32:50;65.18;41.61;79.71;;
45651;Laerm;31365;48.858;8.530;2023-03-12T10:37:56;62.92;42.09;78.85;;
45651;Laerm;31365;48.858;8.530;2023-03-12T10:40:28;64.48;39.34;77.86;;
45651;Laerm;31365;48.858;8.530;2023-03-12T10:42:56;60.84;42.35;75.10;;
45651;Laerm;31365;48.858;8.530;2023-03-12T10:45:33;60.45;40.13;76.99;;
45651;Laerm;31365;48.858;8.530;2023-03-12T10:48:06;60.38;40.33;74.64;;
45651;Laerm;31365;48.858;8.530;2023-03-12T10:50:38;58.01;39.08;74.94;;
45651;Laerm;31365;48.858;8.530;2023-03-12T10:53:20;63.56;38.95;79.15;;
45651;Laerm;31365;48.858;8.530;2023-03-12T10:56:03;62.36;39.21;76.95;;
45651;Laerm;31365;48.858;8.530;2023-03-12T10:58:35;58.26;39.81;74.74;;
45651;Laerm;31365;48.858;8.530;2023-03-12T11:01:15;59.74;40.23;77.71;;
45651;Laerm;31365;48.858;8.530;2023-03-12T11:03:46;60.95;40.62;78.41;;
45651;Laerm;31365;48.858;8.530;2023-03-12T11:06:22;62.43;40.03;76.78;;
45651;Laerm;31365;48.858;8.530;2023-03-12T11:09:05;61.29;40.71;77.37;;
45651;Laerm;31365;48.858;8.530;2023-03-12T11:11:44;60.86;40.33;75.86;;
45651;Laerm;31365;48.858;8.530;2023-03-12T11:14:18;59.87;40.33;79.13;;
45651;Laerm;31365;48.858;8.530;2023-03-12T11:16:47;61.34;39.92;79.76;;
45651;Laerm;31365;48.858;8.530;2023-03-12T11:19:28;63.67;39.70;77.94;;
45651;Laerm;31365;48.858;8.530;2023-03-12T11:22:31;61.96;40.43;76.83;;
45651;Laerm;31365;48.858;8.530;2023-03-12T11:25:05;62.73;40.80;73.99;;
45651;Laerm;31365;48.858;8.530;2023-03-12T11:27:59;57.76;40.13;74.99;;
45651;Laerm;31365;48.858;8.530;2023-03-12T11:30:38;64.48;43.68;78.86;;
45651;Laerm;31365;48.858;8.530;2023-03-12T11:33:09;61.04;39.08;75.53;;
45651;Laerm;31365;48.858;8.530;2023-03-12T11:35:50;62.79;40.23;82.29;;
45651;Laerm;31365;48.858;8.530;2023-03-12T11:38:30;63.01;40.13;80.61;;
45651;Laerm;31365;48.858;8.530;2023-03-12T11:41:25;61.91;40.43;74.05;;
45651;Laerm;31365;48.858;8.530;2023-03-12T11:44:23;61.96;41.30;76.01;;
45651;Laerm;31365;48.858;8.530;2023-03-12T11:47:16;61.76;41.30;76.61;;
45651;Laerm;31365;48.858;8.530;2023-03-12T11:50:05;61.51;39.08;77.45;;
45651;Laerm;31365;48.858;8.530;2023-03-12T11:52:50;63.47;40.43;77.45;;
45651;Laerm;31365;48.858;8.530;2023-03-12T11:55:42;60.28;40.23;76.66;;
45651;Laerm;31365;48.858;8.530;2023-03-12T11:58:52;60.50;39.46;75.55;;
45651;Laerm;31365;48.858;8.530;2023-03-12T12:01:38;62.62;42.16;76.73;;
45651;Laerm;31365;48.858;8.530;2023-03-12T12:04:45;62.84;40.71;77.37;;
45651;Laerm;31365;48.858;8.530;2023-03-12T12:07:38;63.42;40.43;88.00;;
45651;Laerm;31365;48.858;8.530;2023-03-12T12:10:25;61.48;40.89;76.08;;
45651;Laerm;31365;48.858;8.530;2023-03-12T12:13:08;62.99;40.45;79.03;;
45651;Laerm;31365;48.858;8.530;2023-03-12T12:15:51;61.27;40.13;75.89;;
45651;Laerm;31365;48.858;8.530;2023-03-12T12:18:43;60.29;40.23;73.83;;
45651;Laerm;31365;48.858;8.530;2023-03-12T12:24:56;62.58;41.14;75.46;;
45651;Laerm;31365;48.858;8.530;2023-03-12T12:38:04;62.48;39.46;78.48;;
45651;Laerm;31365;48.858;8.530;2023-03-12T12:40:40;62.80;43.63;76.98;;
45651;Laerm;31365;48.858;8.530;2023-03-12T12:43:26;62.80;43.63;76.98;;
45651;Laerm;31365;48.858;8.530;2023-03-12T12:45:59;60.27;39.92;74.92;;
45651;Laerm;31365;48.858;8.530;2023-03-12T12:48:34;60.94;39.92;78.61;;
45651;Laerm;31365;48.858;8.530;2023-03-12T12:51:06;59.29;40.43;72.55;;
45651;Laerm;31365;48.858;8.530;2023-03-12T12:53:47;58.12;39.34;78.77;;
45651;Laerm;31365;48.858;8.530;2023-03-12T12:56:27;59.74;38.05;76.17;;
45651;Laerm;31365;48.858;8.530;2023-03-12T12:59:29;61.37;40.53;77.77;;
45651;Laerm;31365;48.858;8.530;2023-03-12T13:02:10;63.37;40.53;77.67;;
45651;Laerm;31365;48.858;8.530;2023-03-12T13:04:43;61.66;39.81;74.85;;
45651;Laerm;31365;48.858;8.530;2023-03-12T13:07:31;61.93;41.22;80.18;;
45651;Laerm;31365;48.858;8.530;2023-03-12T13:10:42;57.06;37.52;75.06;;
45651;Laerm;31365;48.858;8.530;2023-03-12T13:13:28;61.63;38.81;77.66;;
45651;Laerm;31365;48.858;8.530;2023-03-12T13:16:26;62.86;40.13;75.56;;
45651;Laerm;31365;48.858;8.530;2023-03-12T13:18:59;61.69;39.34;76.64;;
45651;Laerm;31365;48.858;8.530;2023-03-12T13:21:36;59.19;39.21;74.25;;
45651;Laerm;31365;48.858;8.530;2023-03-12T13:24:18;61.63;40.71;74.91;;
45651;Laerm;31365;48.858;8.530;2023-03-12T13:26:57;62.95;40.53;79.40;;
45651;Laerm;31365;48.858;8.530;2023-03-12T13:29:40;62.54;39.58;77.48;;
45651;Laerm;31365;48.858;8.530;2023-03-12T13:33:03;60.86;39.46;74.95;;
45651;Laerm;31365;48.858;8.530;2023-03-12T13:35:37;58.62;39.81;74.70;;
45651;Laerm;31365;48.858;8.530;2023-03-12T13:38:10;61.31;39.21;76.78;;
45651;Laerm;31365;48.858;8.530;2023-03-12T13:40:56;63.16;41.06;77.48;;
45651;Laerm;31365;48.858;8.530;2023-03-12T13:43:50;61.73;42.22;76.14;;
45651;Laerm;31365;48.858;8.530;2023-03-12T13:46:38;60.81;40.18;78.06;;
45651;Laerm;31365;48.858;8.530;2023-03-12T13:49:16;58.33;39.46;74.41;;
45651;Laerm;31365;48.858;8.530;2023-03-12T13:52:18;61.06;40.08;78.62;;
45651;Laerm;31365;48.858;8.530;2023-03-12T13:54:57;63.49;40.62;78.47;;
45651;Laerm;31365;48.858;8.530;2023-03-12T13:57:36;59.82;37.88;77.02;;
45651;Laerm;31365;48.858;8.530;2023-03-12T14:00:16;60.61;40.23;74.09;;
45651;Laerm;31365;48.858;8.530;2023-03-12T14:02:51;60.47;39.92;75.64;;
45651;Laerm;31365;48.858;8.530;2023-03-12T14:05:20;64.07;39.92;80.31;;
45651;Laerm;31365;48.858;8.530;2023-03-12T14:08:08;59.80;40.03;75.13;;
45651;Laerm;31365;48.858;8.530;2023-03-12T14:10:54;60.50;40.23;75.04;;
45651;Laerm;31365;48.858;8.530;2023-03-12T14:13:41;59.53;40.43;76.96;;
45651;Laerm;31365;48.858;8.530;2023-03-12T14:16:21;58.54;36.91;73.42;;
45651;Laerm;31365;48.858;8.530;2023-03-12T14:18:53;58.26;36.20;75.84;;
45651;Laerm;31365;48.858;8.530;2023-03-12T14:21:23;61.04;37.70;75.80;;
45651;Laerm;31365;48.858;8.530;2023-03-12T14:23:57;59.93;40.08;73.85;;
45651;Laerm;31365;48.858;8.530;2023-03-12T14:26:31;59.12;40.89;77.26;;
45651;Laerm;31365;48.858;8.530;2023-03-12T14:29:07;61.04;40.03;76.98;;
45651;Laerm;31365;48.858;8.530;2023-03-12T14:31:37;73.77;41.46;99.01;;
45651;Laerm;31365;48.858;8.530;2023-03-12T14:34:14;63.02;40.33;75.49;;
45651;Laerm;31365;48.858;8.530;2023-03-12T14:36:55;61.62;40.13;76.80;;
45651;Laerm;31365;48.858;8.530;2023-03-12T14:39:31;64.32;41.30;81.23;;
45651;Laerm;31365;48.858;8.530;2023-03-12T14:42:05;60.09;39.08;74.72;;
45651;Laerm;31365;48.858;8.530;2023-03-12T14:44:36;63.10;39.46;81.77;;
45651;Laerm;31365;48.858;8.530;2023-03-12T14:47:09;60.65;38.37;77.78;;
45651;Laerm;31365;48.858;8.530;2023-03-12T14:49:40;60.91;39.58;75.71;;
45651;Laerm;31365;48.858;8.530;2023-03-12T14:52:11;61.80;41.82;77.78;;
45651;Laerm;31365;48.858;8.530;2023-03-12T14:54:53;60.70;39.46;77.07;;
45651;Laerm;31365;48.858;8.530;2023-03-12T14:57:22;62.84;40.62;75.36;;
45651;Laerm;31365;48.858;8.530;2023-03-12T14:59:56;61.20;39.08;75.96;;
45651;Laerm;31365;48.858;8.530;2023-03-12T15:02:29;64.80;40.43;80.47;;
45651;Laerm;31365;48.858;8.530;2023-03-12T15:05:00;60.55;40.03;75.81;;
45651;Laerm;31365;48.858;8.530;2023-03-12T15:07:33;63.08;42.93;76.67;;
45651;Laerm;31365;48.858;8.530;2023-03-12T15:10:15;61.72;38.02;79.33;;
45651;Laerm;31365;48.858;8.530;2023-03-12T15:12:45;59.79;38.95;76.26;;
45651;Laerm;31365;48.858;8.530;2023-03-12T15:15:30;63.55;40.89;77.04;;
45651;Laerm;31365;48.858;8.530;2023-03-12T15:18:06;64.14;42.82;77.94;;
45651;Laerm;31365;48.858;8.530;2023-03-12T15:20:35;62.28;39.21;76.72;;
45651;Laerm;31365;48.858;8.530;2023-03-12T15:23:05;60.77;39.81;80.13;;
45651;Laerm;31365;48.858;8.530;2023-03-12T15:25:36;61.31;38.37;78.83;;
45651;Laerm;31365;48.858;8.530;2023-03-12T15:28:22;62.08;39.99;77.58;;
45651;Laerm;31365;48.858;8.530;2023-03-12T15:31:10;62.24;39.81;76.98;;
45651;Laerm;31365;48.858;8.530;2023-03-12T15:33:42;60.66;41.53;75.60;;
45651;Laerm;31365;48.858;8.530;2023-03-12T15:36:25;64.99;42.76;82.02;;
45651;Laerm;31365;48.858;8.530;2023-03-12T15:38:58;63.39;40.23;77.65;;
45651;Laerm;31365;48.858;8.530;2023-03-12T15:41:41;60.87;39.21;75.57;;
45651;Laerm;31365;48.858;8.530;2023-03-12T15:44:19;61.31;39.58;78.30;;
45651;Laerm;31365;48.858;8.530;2023-03-12T15:46:51;60.09;39.46;74.70;;
45651;Laerm;31365;48.858;8.530;2023-03-12T15:49:26;62.73;43.04;77.88;;
45651;Laerm;31365;48.858;8.530;2023-03-12T15:52:24;61.51;40.71;77.31;;
45651;Laerm;31365;48.858;8.530;2023-03-12T15:55:17;62.67;40.43;74.97;;
45651;Laerm;31365;48.858;8.530;2023-03-12T15:57:50;60.69;40.13;73.27;;
45651;Laerm;31365;48.858;8.530;2023-03-12T16:00:27;62.70;43.09;79.24;;
45651;Laerm;31365;48.858;8.530;2023-03-12T16:02:59;63.25;42.47;78.81;;
45651;Laerm;31365;48.858;8.530;2023-03-12T16:05:34;63.27;45.54;76.01;;
45651;Laerm;31365;48.858;8.530;2023-03-12T16:08:14;61.40;38.74;77.03;;
45651;Laerm;31365;48.858;8.530;2023-03-12T16:10:43;66.26;41.46;84.45;;
45651;Laerm;31365;48.858;8.530;2023-03-12T17:31:05;62.90;40.08;84.99;;
45651;Laerm;31365;48.858;8.530;2023-03-12T17:33:54;61.83;42.22;77.04;;
45651;Laerm;31365;48.858;8.530;2023-03-12T17:36:22;62.94;41.89;76.38;;
45651;Laerm;31365;48.858;8.530;2023-03-12T17:38:50;63.52;40.53;79.75;;
45651;Laerm;31365;48.858;8.530;2023-03-12T17:41:19;60.12;39.08;72.91;;
45651;Laerm;31365;48.858;8.530;2023-03-12T17:43:54;59.01;38.67;72.89;;
45651;Laerm;31365;48.858;8.530;2023-03-12T17:46:27;60.49;38.21;80.29;;
45651;Laerm;31365;48.858;8.530;2023-03-12T17:48:56;60.60;39.21;76.52;;
45651;Laerm;31365;48.858;8.530;2023-03-12T17:51:25;58.33;39.46;72.74;;
45651;Laerm;31365;48.858;8.530;2023-03-12T17:54:12;61.77;40.80;75.18;;
45651;Laerm;31365;48.858;8.530;2023-03-12T17:56:41;58.61;38.81;73.81;;
45651;Laerm;31365;48.858;8.530;2023-03-12T17:59:09;59.71;39.08;77.91;;
45651;Laerm;31365;48.858;8.530;2023-03-12T18:01:39;60.93;38.81;75.16;;
45651;Laerm;31365;48.858;8.530;2023-03-12T18:04:07;62.79;38.60;79.33;;
45651;Laerm;31365;48.858;8.530;2023-03-12T18:06:35;63.16;39.08;82.70;;
45651;Laerm;31365;48.858;8.530;2023-03-12T18:09:03;59.13;38.52;78.69;;
45651;Laerm;31365;48.858;8.530;2023-03-12T18:11:52;60.41;38.95;75.41;;
45651;Laerm;31365;48.858;8.530;2023-03-12T18:14:21;60.95;41.53;77.69;;
45651;Laerm;31365;48.858;8.530;2023-03-12T18:16:51;62.59;41.30;77.77;;
45651;Laerm;31365;48.858;8.530;2023-03-12T18:21:49;60.52;38.67;76.37;;
45651;Laerm;31365;48.858;8.530;2023-03-12T18:24:18;60.50;41.61;71.44;;
45651;Laerm;31365;48.858;8.530;2023-03-12T18:26:46;64.06;40.13;82.35;;
45651;Laerm;31365;48.858;8.530;2023-03-12T18:29:16;58.62;39.58;71.65;;
45651;Laerm;31365;48.858;8.530;2023-03-12T18:31:45;52.27;37.52;71.33;;
45651;Laerm;31365;48.858;8.530;2023-03-12T18:34:35;63.05;40.80;76.28;;
45651;Laerm;31365;48.858;8.530;2023-03-12T18:37:07;56.29;37.52;75.06;;
45651;Laerm;31365;48.858;8.530;2023-03-12T18:39:35;60.98;40.80;77.26;;
45651;Laerm;31365;48.858;8.530;2023-03-12T18:42:03;60.77;39.81;75.65;;
45651;Laerm;31365;48.858;8.530;2023-03-12T18:44:34;60.46;37.70;75.21;;
45651;Laerm;31365;48.858;8.530;2023-03-12T18:47:02;59.87;38.21;73.58;;
45651;Laerm;31365;48.858;8.530;2023-03-12T18:49:30;55.08;38.05;74.29;;
45651;Laerm;31365;48.858;8.530;2023-03-12T18:52:00;58.85;38.05;75.96;;
45651;Laerm;31365;48.858;8.530;2023-03-12T18:54:28;60.09;37.32;77.21;;
45651;Laerm;31365;48.858;8.530;2023-03-12T18:56:57;64.30;38.95;85.41;;
45651;Laerm;31365;48.858;8.530;2023-03-12T18:59:27;60.71;39.81;74.49;;
45651;Laerm;31365;48.858;8.530;2023-03-12T19:01:58;60.93;37.12;75.62;;
45651;Laerm;31365;48.858;8.530;2023-03-12T19:04:28;56.50;37.12;76.89;;
45651;Laerm;31365;48.858;8.530;2023-03-12T19:07:00;59.66;38.67;78.17;;
45651;Laerm;31365;48.858;8.530;2023-03-12T19:09:29;57.40;38.52;77.97;;
45651;Laerm;31365;48.858;8.530;2023-03-12T19:11:58;61.12;39.46;78.13;;
45651;Laerm;31365;48.858;8.530;2023-03-12T19:14:28;58.89;37.52;74.39;;